Time;durP1;ratioP1;P1;durP2;ratioP2;P2;SDS_P1;SDS_P2;PMS_P1;PMS_P2;Temp;Humidity;BMP_temperature;BMP_pressure;BME280_temperature;BME280_humidity;BME280_pressure;Samples;Min_cycle;Max_cycle;Signal;HPM_P1;HPM_P2
2021/11/11 00:00:25;;;;;;;9.82;7.57;;;10.70;74.20;;;;;;5072148;28;20484;-80
2021/11/11 00:02:57;;;;;;;10.05;7.57;;;10.70;74.30;;;;;;5054436;28;20047;-79
2021/11/11 00:05:23;;;;;;;9.95;8.00;;;10.70;74.30;;;;;;5055197;28;20033;-79
2021/11/11 00:07:49;;;;;;;10.18;7.78;;;10.60;74.20;;;;;;5055296;28;20079;-79
2021/11/11 00:10:17;;;;;;;11.20;7.85;;;10.60;74.20;;;;;;5056127;28;20469;-79
2021/11/11 00:12:45;;;;;;;10.80;7.93;;;10.60;74.20;;;;;;5071881;28;20037;-79
2021/11/11 00:15:12;;;;;;;10.23;7.63;;;10.60;74.20;;;;;;5055832;28;20063;-79
2021/11/11 00:17:39;;;;;;;10.65;7.55;;;10.60;74.20;;;;;;5038145;28;20082;-79
2021/11/11 00:20:06;;;;;;;10.05;8.05;;;10.60;74.30;;;;;;5038300;28;20029;-78
2021/11/11 00:22:32;;;;;;;11.68;7.65;;;10.50;74.20;;;;;;5055212;28;20029;-79
2021/11/11 00:24:58;;;;;;;9.18;6.88;;;10.50;74.20;;;;;;5038245;28;20052;-79
2021/11/11 00:27:24;;;;;;;9.70;7.15;;;10.50;74.20;;;;;;5054796;28;20029;-79
2021/11/11 00:29:50;;;;;;;10.20;7.30;;;10.50;74.20;;;;;;5054829;28;20041;-80
2021/11/11 00:32:16;;;;;;;10.30;7.32;;;10.40;74.10;;;;;;5054737;28;20104;-79
2021/11/11 00:34:43;;;;;;;10.40;7.60;;;10.40;74.10;;;;;;5054628;28;20072;-79
2021/11/11 00:37:08;;;;;;;10.48;7.25;;;10.40;74.10;;;;;;5054681;28;20043;-79
2021/11/11 00:39:34;;;;;;;10.75;7.55;;;10.40;74.10;;;;;;5054938;28;20041;-79
2021/11/11 00:42:00;;;;;;;10.93;7.57;;;10.40;74.10;;;;;;5054448;28;20116;-79
2021/11/11 00:44:26;;;;;;;10.15;6.80;;;10.30;74.10;;;;;;5054409;28;20101;-79
2021/11/11 00:46:52;;;;;;;10.55;7.18;;;10.30;74.10;;;;;;5054572;28;20063;-79
2021/11/11 00:49:19;;;;;;;10.15;7.13;;;10.30;74.10;;;;;;5054315;28;20044;-79
2021/11/11 00:51:45;;;;;;;10.65;6.80;;;10.30;74.20;;;;;;5054285;28;20531;-79
2021/11/11 00:54:11;;;;;;;9.40;6.57;;;10.20;74.10;;;;;;5054403;28;20115;-79
2021/11/11 00:56:37;;;;;;;9.27;6.53;;;10.20;74.20;;;;;;5054180;28;20029;-79
2021/11/11 00:59:06;;;;;;;9.80;7.05;;;10.20;74.10;;;;;;5037749;28;20536;-79
2021/11/11 01:01:31;;;;;;;9.27;6.57;;;10.20;74.10;;;;;;5054357;28;20041;-79
2021/11/11 01:03:59;;;;;;;10.13;7.35;;;10.20;74.20;;;;;;5054387;28;20028;-78
2021/11/11 01:06:29;;;;;;;10.50;6.90;;;10.10;74.10;;;;;;5037389;28;20044;-79
2021/11/11 01:08:56;;;;;;;9.88;6.72;;;10.10;74.10;;;;;;5054408;28;20036;-78
2021/11/11 01:11:23;;;;;;;9.15;7.13;;;10.10;74.10;;;;;;5053855;28;20116;-80
2021/11/11 01:13:49;;;;;;;10.00;7.35;;;10.10;74.20;;;;;;5054322;28;20124;-80
2021/11/11 01:16:15;;;;;;;8.35;6.32;;;10.00;74.10;;;;;;5053458;28;20489;-79
2021/11/11 01:18:41;;;;;;;8.32;6.68;;;10.00;74.10;;;;;;5054244;28;20052;-80
2021/11/11 01:21:07;;;;;;;10.68;7.18;;;10.00;74.10;;;;;;5054361;28;20029;-79
2021/11/11 01:23:33;;;;;;;8.32;6.47;;;10.00;74.20;;;;;;5054040;28;20057;-79
2021/11/11 01:26:00;;;;;;;9.60;6.88;;;10.00;74.20;;;;;;5054677;28;20025;-78
2021/11/11 01:28:27;;;;;;;9.27;6.78;;;9.90;74.20;;;;;;5053564;28;20057;-80
2021/11/11 01:30:55;;;;;;;8.77;6.72;;;9.90;74.20;;;;;;5053604;28;20033;-79
2021/11/11 01:33:28;;;;;;;8.68;6.47;;;9.90;74.20;;;;;;5053852;28;20132;-79
2021/11/11 01:35:54;;;;;;;9.88;7.10;;;9.90;74.20;;;;;;5053524;28;20057;-79
2021/11/11 01:38:26;;;;;;;8.55;6.63;;;9.80;74.20;;;;;;5054551;28;20025;-79
2021/11/11 01:40:54;;;;;;;8.73;6.50;;;9.80;74.20;;;;;;5037596;28;20029;-79
2021/11/11 01:43:23;;;;;;;9.18;7.15;;;9.80;74.20;;;;;;5054145;28;20116;-79
2021/11/11 01:45:49;;;;;;;9.02;6.70;;;9.80;74.20;;;;;;5037023;28;20124;-79
2021/11/11 01:48:22;;;;;;;9.35;6.82;;;9.80;74.20;;;;;;5053654;28;20474;-78
2021/11/11 01:50:48;;;;;;;11.25;7.10;;;9.80;74.30;;;;;;5036692;28;20033;-79
2021/11/11 01:53:16;;;;;;;10.38;6.55;;;9.70;74.20;;;;;;5053166;28;20033;-80
2021/11/11 01:55:44;;;;;;;9.65;6.90;;;9.70;74.30;;;;;;5053138;28;20039;-79
2021/11/11 01:58:10;;;;;;;8.90;6.90;;;9.70;74.30;;;;;;5052992;28;20119;-79
2021/11/11 02:00:45;;;;;;;8.27;6.65;;;9.70;74.30;;;;;;5053111;28;20017;-79
2021/11/11 02:03:17;;;;;;;8.80;6.38;;;9.70;74.40;;;;;;5053453;28;20037;-79
2021/11/11 02:06:09;;;;;;;9.23;6.40;;;9.60;74.30;;;;;;5052846;28;20033;-79
2021/11/11 02:08:54;;;;;;;8.95;6.25;;;9.60;74.30;;;;;;5067955;28;20432;-79
2021/11/11 02:11:26;;;;;;;9.82;6.95;;;9.60;74.30;;;;;;5037377;28;20033;-79
2021/11/11 02:13:54;;;;;;;8.52;5.97;;;9.60;74.40;;;;;;5053207;28;20041;-80
2021/11/11 02:16:21;;;;;;;8.70;6.78;;;9.60;74.50;;;;;;5069683;28;20049;-79
2021/11/11 02:18:47;;;;;;;9.35;6.63;;;9.60;74.50;;;;;;5053078;28;20033;-79
2021/11/11 02:21:14;;;;;;;8.05;6.10;;;9.60;74.50;;;;;;5052468;28;20053;-79
2021/11/11 02:23:52;;;;;;;9.20;6.85;;;9.60;74.50;;;;;;5052901;28;20079;-79
2021/11/11 02:26:33;;;;;;;8.05;5.85;;;9.50;74.50;;;;;;5038070;28;20379;-79
2021/11/11 02:29:12;;;;;;;9.02;6.63;;;9.60;74.60;;;;;;5052700;28;20076;-79
2021/11/11 02:31:38;;;;;;;8.73;6.35;;;9.60;74.60;;;;;;5053484;28;20036;-79
2021/11/11 02:34:04;;;;;;;9.38;6.53;;;9.50;74.60;;;;;;5052663;28;20450;-79
2021/11/11 02:37:02;;;;;;;8.25;6.40;;;9.60;74.70;;;;;;5052917;28;20029;-79
2021/11/11 02:39:46;;;;;;;9.93;6.90;;;9.60;74.80;;;;;;5052978;28;20496;-79
2021/11/11 02:42:12;;;;;;;8.60;6.05;;;9.50;74.60;;;;;;5052708;28;20041;-79
2021/11/11 02:44:42;;;;;;;8.07;6.28;;;9.50;74.70;;;;;;5036962;28;20033;-80
2021/11/11 02:47:09;;;;;;;10.45;7.15;;;9.50;74.70;;;;;;5052503;28;20021;-79
2021/11/11 02:49:41;;;;;;;8.95;6.60;;;9.50;74.80;;;;;;5053795;28;20086;-80
2021/11/11 02:52:07;;;;;;;9.00;6.47;;;9.50;74.80;;;;;;5052538;28;20132;-79
2021/11/11 02:54:39;;;;;;;9.27;6.75;;;9.50;74.80;;;;;;5052740;28;20479;-79
2021/11/11 02:57:39;;;;;;;9.20;6.90;;;9.50;74.80;;;;;;5052313;28;20029;-78
2021/11/11 03:00:09;;;;;;;9.73;6.72;;;9.50;75.00;;;;;;5020317;28;20029;-79
2021/11/11 03:02:38;;;;;;;8.65;6.53;;;9.50;74.80;;;;;;5052667;28;20039;-79
2021/11/11 03:05:06;;;;;;;8.13;6.43;;;9.50;74.90;;;;;;5053064;28;20033;-79
2021/11/11 03:07:34;;;;;;;10.00;6.95;;;9.50;74.90;;;;;;5052744;28;20025;-79
2021/11/11 03:10:00;;;;;;;8.70;6.47;;;9.50;74.90;;;;;;5035550;28;20038;-79
2021/11/11 03:12:27;;;;;;;10.18;7.05;;;9.50;75.00;;;;;;5052122;28;20123;-79
2021/11/11 03:14:56;;;;;;;8.68;6.82;;;9.50;75.00;;;;;;5053241;28;20108;-79
2021/11/11 03:17:23;;;;;;;8.52;6.75;;;9.50;75.00;;;;;;5052322;28;20131;-79
2021/11/11 03:19:49;;;;;;;9.52;7.05;;;9.50;75.00;;;;;;5052628;28;20044;-78
2021/11/11 03:22:18;;;;;;;8.90;6.82;;;9.50;75.00;;;;;;5052424;28;20037;-79
2021/11/11 03:24:48;;;;;;;10.40;7.28;;;9.50;75.00;;;;;;5036640;28;20485;-78
2021/11/11 03:27:15;;;;;;;8.50;6.53;;;9.50;75.00;;;;;;5052370;28;20389;-79
2021/11/11 03:29:45;;;;;;;9.32;6.95;;;9.50;75.00;;;;;;5052103;28;20037;-79
2021/11/11 03:32:12;;;;;;;11.40;7.88;;;9.50;75.00;;;;;;5068735;28;20037;-79
2021/11/11 03:34:42;;;;;;;9.65;7.30;;;9.50;75.00;;;;;;5051925;28;20221;-79
2021/11/11 03:37:11;;;;;;;9.48;7.13;;;9.50;75.00;;;;;;5052311;28;20025;-79
2021/11/11 03:39:38;;;;;;;9.02;7.03;;;9.50;75.00;;;;;;5055855;28;20029;-79
2021/11/11 03:42:04;;;;;;;9.45;7.13;;;9.50;75.10;;;;;;5056081;28;20029;-79
2021/11/11 03:44:30;;;;;;;10.02;7.22;;;9.50;75.00;;;;;;5055833;28;20477;-79
2021/11/11 03:47:00;;;;;;;8.32;6.38;;;9.50;75.00;;;;;;5055899;28;20029;-79
2021/11/11 03:49:27;;;;;;;9.75;7.03;;;9.50;75.10;;;;;;5055422;28;20020;-79
2021/11/11 03:51:54;;;;;;;8.70;6.82;;;9.50;75.10;;;;;;5055836;28;20028;-79
2021/11/11 03:54:22;;;;;;;9.57;7.22;;;9.40;75.00;;;;;;5055552;28;20037;-80
2021/11/11 03:56:49;;;;;;;10.15;7.15;;;9.50;75.10;;;;;;5055289;28;20381;-80
2021/11/11 03:59:17;;;;;;;10.30;7.38;;;9.40;75.00;;;;;;5055274;28;20025;-80
2021/11/11 04:01:44;;;;;;;8.68;6.65;;;9.40;75.10;;;;;;5057789;28;20052;-80
2021/11/11 04:04:10;;;;;;;9.88;7.40;;;9.50;75.10;;;;;;5056027;28;20037;-79
2021/11/11 04:06:36;;;;;;;8.27;6.78;;;9.40;75.00;;;;;;5055314;28;20032;-79
2021/11/11 04:09:04;;;;;;;11.30;7.18;;;9.40;75.00;;;;;;5055483;28;20143;-79
2021/11/11 04:11:32;;;;;;;10.48;7.68;;;9.40;75.10;;;;;;5055236;28;20045;-80
2021/11/11 04:13:59;;;;;;;9.30;7.05;;;9.50;75.10;;;;;;5055132;28;20057;-79
2021/11/11 04:16:25;;;;;;;10.27;6.63;;;9.40;75.00;;;;;;5055392;28;20033;-80
2021/11/11 04:18:52;;;;;;;9.13;6.95;;;9.40;75.00;;;;;;5055120;28;20037;-79
2021/11/11 04:21:19;;;;;;;10.90;7.47;;;9.40;75.10;;;;;;5054934;28;20036;-80
2021/11/11 04:23:47;;;;;;;10.57;7.63;;;9.40;75.10;;;;;;5054903;28;20033;-79
2021/11/11 04:28:49;;;;;;;8.85;6.63;;;9.40;75.10;;;;;;5054668;28;20120;-78
2021/11/11 04:31:28;;;;;;;9.07;6.82;;;9.40;75.10;;;;;;5055560;28;20377;-79
2021/11/11 04:34:04;;;;;;;9.45;7.00;;;9.40;75.10;;;;;;5040019;28;20041;-79
2021/11/11 05:01:10;;;;;;;8.27;6.20;;;9.30;75.20;;;;;;5055168;28;20039;-79
2021/11/11 05:03:35;;;;;;;9.95;7.40;;;9.30;75.20;;;;;;5040773;28;20473;-80
2021/11/11 05:06:01;;;;;;;9.00;6.32;;;9.30;75.20;;;;;;5054684;28;20454;-79
2021/11/11 05:08:28;;;;;;;9.05;6.45;;;9.30;75.30;;;;;;5054062;28;20072;-79
2021/11/11 05:10:56;;;;;;;9.88;7.18;;;9.30;75.30;;;;;;5053990;28;20051;-79
2021/11/11 05:13:23;;;;;;;9.38;7.05;;;9.30;75.30;;;;;;5053866;28;20039;-80
2021/11/11 05:15:50;;;;;;;10.30;7.55;;;9.30;75.30;;;;;;5054313;28;20116;-79
2021/11/11 05:18:16;;;;;;;10.52;7.53;;;9.30;75.30;;;;;;5055130;28;20037;-80
2021/11/11 05:20:42;;;;;;;10.07;7.90;;;9.30;75.30;;;;;;5054116;28;20470;-80
2021/11/11 05:23:08;;;;;;;9.70;7.57;;;9.30;75.30;;;;;;5054189;28;20135;-79
2021/11/11 05:25:34;;;;;;;10.40;7.10;;;9.30;75.30;;;;;;5054224;28;20529;-79
2021/11/11 05:28:01;;;;;;;11.02;8.15;;;9.30;76.00;;;;;;5053805;28;20067;-78
2021/11/11 05:30:28;;;;;;;9.85;7.13;;;9.40;75.40;;;;;;5054555;28;20533;-79
2021/11/11 05:32:56;;;;;;;10.35;7.20;;;9.30;76.00;;;;;;5053928;28;20028;-78
2021/11/11 05:35:27;;;;;;;9.82;6.88;;;9.30;75.30;;;;;;5054064;28;20029;-80
2021/11/11 05:37:53;;;;;;;10.52;7.63;;;9.30;75.30;;;;;;5037971;28;20033;-79
2021/11/11 05:40:21;;;;;;;10.80;7.78;;;9.40;75.40;;;;;;5054440;28;20120;-79
2021/11/11 05:42:50;;;;;;;10.40;6.97;;;9.40;75.40;;;;;;5053699;28;20470;-79
2021/11/11 05:45:17;;;;;;;10.48;7.55;;;9.40;75.40;;;;;;5053870;28;20056;-79
2021/11/11 05:47:43;;;;;;;10.40;7.60;;;9.40;75.40;;;;;;5053679;28;20103;-79
2021/11/11 05:50:11;;;;;;;9.80;7.63;;;9.40;75.40;;;;;;5053675;28;20120;-78
2021/11/11 05:52:37;;;;;;;11.10;8.02;;;9.40;75.50;;;;;;5053038;28;20435;-78
2021/11/11 05:55:06;;;;;;;9.02;7.63;;;9.40;75.50;;;;;;5053220;28;20037;-79
2021/11/11 05:57:33;;;;;;;10.07;7.43;;;9.40;75.40;;;;;;5053366;28;20047;-79
2021/11/11 05:59:59;;;;;;;10.60;7.28;;;9.40;75.40;;;;;;5053194;28;20466;-78
2021/11/11 06:02:25;;;;;;;9.95;7.18;;;9.40;75.50;;;;;;5052190;28;20043;-79
2021/11/11 06:04:51;;;;;;;11.05;8.02;;;9.40;75.40;;;;;;5036545;28;20061;-79
2021/11/11 06:07:19;;;;;;;10.10;7.85;;;9.40;75.40;;;;;;5053144;28;20033;-79
2021/11/11 06:09:46;;;;;;;11.10;8.02;;;9.40;75.50;;;;;;5036709;28;20059;-79
2021/11/11 06:12:12;;;;;;;9.15;7.28;;;9.40;75.50;;;;;;5036362;28;20045;-77
2021/11/11 06:14:37;;;;;;;10.60;7.30;;;9.40;75.50;;;;;;5052830;28;20479;-78
2021/11/11 06:17:07;;;;;;;10.63;8.10;;;9.40;75.50;;;;;;5052797;28;20033;-78
2021/11/11 06:19:36;;;;;;;10.23;7.78;;;9.40;75.50;;;;;;5052597;28;20057;-78
2021/11/11 06:22:04;;;;;;;10.55;7.22;;;9.40;75.50;;;;;;5052701;28;20029;-79
2021/11/11 06:24:31;;;;;;;11.25;7.47;;;9.40;75.50;;;;;;5052555;28;20039;-79
2021/11/11 06:26:57;;;;;;;10.55;8.20;;;9.40;75.50;;;;;;5036668;28;20033;-78
2021/11/11 06:29:23;;;;;;;10.80;7.35;;;9.40;75.50;;;;;;5052579;28;20053;-79
2021/11/11 06:31:49;;;;;;;11.32;7.22;;;9.40;76.10;;;;;;5052660;28;20060;-78
2021/11/11 06:34:21;;;;;;;11.02;8.27;;;9.40;75.50;;;;;;5052911;28;20360;-78
2021/11/11 06:36:47;;;;;;;10.70;8.02;;;9.50;75.50;;;;;;5053601;28;20076;-78
2021/11/11 06:39:13;;;;;;;10.80;8.00;;;9.40;75.50;;;;;;5052361;28;20052;-78
2021/11/11 06:41:39;;;;;;;8.95;7.03;;;9.40;75.50;;;;;;5052545;28;20456;-79
2021/11/11 06:44:04;;;;;;;10.65;7.55;;;9.50;75.60;;;;;;5035835;28;20029;-79
2021/11/11 06:46:31;;;;;;;10.57;7.53;;;9.40;75.50;;;;;;5052744;28;20033;-80
2021/11/11 06:48:57;;;;;;;10.43;7.28;;;9.50;75.60;;;;;;5052394;28;20033;-80
2021/11/11 06:51:23;;;;;;;10.02;7.20;;;9.50;75.60;;;;;;5053528;28;20484;-77
2021/11/11 06:53:49;;;;;;;10.20;7.55;;;9.50;75.60;;;;;;5068663;28;20029;-76
2021/11/11 06:56:15;;;;;;;10.30;8.05;;;9.50;75.60;;;;;;5052305;28;20052;-77
2021/11/11 06:58:41;;;;;;;11.02;7.78;;;9.50;75.60;;;;;;5052070;28;20024;-75
2021/11/11 07:01:07;;;;;;;9.27;7.07;;;9.50;75.60;;;;;;5052426;28;20434;-77
2021/11/11 07:03:33;;;;;;;9.52;7.18;;;9.50;75.60;;;;;;5052048;28;20045;-77
2021/11/11 07:05:59;;;;;;;10.15;7.07;;;9.50;75.60;;;;;;5051768;28;20029;-76
2021/11/11 07:08:25;;;;;;;10.35;7.82;;;9.50;75.60;;;;;;5052377;28;20078;-77
2021/11/11 07:10:54;;;;;;;11.18;8.10;;;9.50;75.60;;;;;;5052262;28;20430;-78
2021/11/11 07:13:21;;;;;;;9.57;7.22;;;9.50;75.60;;;;;;5054718;28;20436;-77
2021/11/11 07:15:48;;;;;;;10.43;7.78;;;9.50;75.60;;;;;;5057221;28;20111;-75
2021/11/11 07:18:15;;;;;;;10.15;7.45;;;9.50;75.60;;;;;;5055948;28;20480;-76
2021/11/11 07:20:44;;;;;;;9.65;7.05;;;9.50;75.60;;;;;;5072582;28;20033;-76
2021/11/11 07:23:15;;;;;;;10.43;8.13;;;9.50;75.60;;;;;;5055899;28;20031;-76
2021/11/11 07:25:41;;;;;;;10.07;7.50;;;9.50;75.30;;;;;;5055852;28;20033;-78
2021/11/11 07:28:06;;;;;;;12.05;8.20;;;9.50;75.60;;;;;;5057132;28;20071;-76
2021/11/11 07:30:33;;;;;;;10.07;7.32;;;9.50;75.60;;;;;;5056073;28;20040;-76
2021/11/11 07:32:58;;;;;;;9.60;7.60;;;9.60;75.70;;;;;;5055627;28;20465;-76
2021/11/11 07:35:24;;;;;;;9.88;7.45;;;9.50;75.60;;;;;;5057111;28;20086;-76
2021/11/11 07:37:51;;;;;;;11.48;8.13;;;9.60;75.70;;;;;;5055499;28;20029;-77
2021/11/11 07:40:20;;;;;;;9.52;7.20;;;9.60;75.60;;;;;;5055543;28;20428;-77
2021/11/11 07:42:47;;;;;;;9.85;7.80;;;9.60;75.70;;;;;;5055497;28;20033;-76
2021/11/11 07:45:16;;;;;;;10.52;8.18;;;9.60;75.70;;;;;;5056494;28;20478;-76
2021/11/11 07:47:42;;;;;;;10.07;7.05;;;9.60;75.60;;;;;;5056557;28;20036;-76
2021/11/11 07:50:09;;;;;;;10.82;8.18;;;9.60;75.60;;;;;;5055332;28;20021;-76
2021/11/11 07:52:35;;;;;;;11.45;8.10;;;9.60;75.70;;;;;;5038451;28;20039;-77
2021/11/11 07:55:01;;;;;;;10.60;7.53;;;9.60;75.60;;;;;;5055441;28;20094;-76
2021/11/11 07:57:30;;;;;;;10.43;7.63;;;9.60;75.60;;;;;;5055244;28;20025;-76
2021/11/11 07:59:56;;;;;;;9.70;7.50;;;9.60;75.70;;;;;;5055328;28;20060;-75
2021/11/11 08:02:23;;;;;;;9.50;7.80;;;9.60;75.70;;;;;;5055122;28;20071;-75
2021/11/11 08:04:50;;;;;;;10.82;7.90;;;9.60;75.70;;;;;;5054973;28;20366;-76
2021/11/11 08:07:18;;;;;;;9.60;7.50;;;9.60;75.70;;;;;;5055211;28;20044;-76
2021/11/11 08:09:45;;;;;;;9.88;7.95;;;9.60;75.70;;;;;;5056330;28;20073;-75
2021/11/11 08:12:11;;;;;;;10.35;7.35;;;9.60;75.70;;;;;;5054567;28;20060;-77
2021/11/11 08:14:37;;;;;;;10.52;8.18;;;9.70;75.70;;;;;;5054785;28;20033;-76
2021/11/11 08:17:03;;;;;;;10.43;8.05;;;9.70;75.70;;;;;;5055174;28;20082;-76
2021/11/11 08:19:29;;;;;;;9.95;7.78;;;9.70;75.80;;;;;;5054826;28;20029;-76
2021/11/11 08:21:55;;;;;;;9.27;7.22;;;9.70;75.80;;;;;;5054632;28;20056;-76
2021/11/11 08:24:21;;;;;;;10.60;7.90;;;9.70;75.80;;;;;;5055396;28;20398;-75
2021/11/11 08:26:47;;;;;;;11.82;7.88;;;9.70;75.80;;;;;;5054551;28;20454;-75
2021/11/11 08:29:14;;;;;;;9.93;7.75;;;9.70;75.80;;;;;;5055144;28;20052;-76
2021/11/11 08:31:40;;;;;;;9.57;7.55;;;9.70;75.80;;;;;;5054524;28;20047;-76
2021/11/11 08:34:06;;;;;;;10.88;8.02;;;9.70;75.80;;;;;;5054674;28;20033;-78
2021/11/11 08:36:32;;;;;;;9.80;7.70;;;9.70;75.80;;;;;;5055481;28;20037;-78
2021/11/11 08:38:58;;;;;;;10.70;7.65;;;9.70;75.80;;;;;;5054542;28;20465;-78
2021/11/11 08:41:26;;;;;;;10.93;8.27;;;9.80;75.80;;;;;;5056184;28;20024;-78
2021/11/11 08:43:53;;;;;;;10.73;8.02;;;9.80;75.80;;;;;;5054271;28;20082;-77
2021/11/11 08:46:19;;;;;;;10.20;7.32;;;9.80;75.80;;;;;;5054686;28;20025;-78
2021/11/11 08:48:45;;;;;;;10.27;7.65;;;9.80;75.80;;;;;;5054462;28;20481;-80
2021/11/11 08:51:11;;;;;;;11.20;7.70;;;9.80;75.80;;;;;;5055466;28;20108;-77
2021/11/11 08:53:37;;;;;;;11.10;7.90;;;9.80;75.80;;;;;;5055157;28;20476;-78
2021/11/11 08:56:03;;;;;;;11.00;7.90;;;9.80;75.80;;;;;;5071138;28;20040;-77
2021/11/11 08:58:32;;;;;;;10.93;7.85;;;9.80;75.80;;;;;;5054299;28;20048;-77
2021/11/11 09:01:01;;;;;;;11.40;8.15;;;9.80;75.70;;;;;;5070701;28;20036;-77
2021/11/11 09:03:27;;;;;;;9.68;7.85;;;9.80;75.80;;;;;;5054822;28;20033;-76
2021/11/11 09:05:54;;;;;;;10.68;8.20;;;9.80;75.80;;;;;;5053970;28;20481;-77
2021/11/11 09:08:20;;;;;;;11.05;8.15;;;9.90;75.90;;;;;;5055164;28;20029;-77
2021/11/11 09:10:46;;;;;;;11.38;8.05;;;9.90;75.80;;;;;;5053921;28;20037;-77
2021/11/11 09:13:13;;;;;;;10.57;7.90;;;9.90;75.80;;;;;;5054012;28;20396;-76
2021/11/11 09:15:39;;;;;;;9.90;8.00;;;9.90;75.80;;;;;;5053792;28;20039;-77
2021/11/11 09:18:07;;;;;;;10.52;8.20;;;9.90;75.80;;;;;;5053729;28;20071;-79
2021/11/11 09:20:35;;;;;;;10.75;8.20;;;9.90;75.80;;;;;;5053385;28;20092;-77
2021/11/11 09:23:01;;;;;;;10.30;8.35;;;9.90;75.80;;;;;;5054948;28;20086;-77
2021/11/11 09:25:30;;;;;;;10.05;7.78;;;9.90;75.80;;;;;;5053572;28;20028;-77
2021/11/11 09:27:59;;;;;;;10.43;8.25;;;9.90;75.80;;;;;;5053266;28;20040;-78
2021/11/11 09:30:28;;;;;;;10.02;7.50;;;9.90;75.80;;;;;;5055295;28;20044;-77
2021/11/11 09:32:54;;;;;;;9.32;7.20;;;10.00;75.80;;;;;;5069729;28;20469;-77
2021/11/11 09:35:21;;;;;;;10.07;7.93;;;10.00;75.80;;;;;;5053230;28;20029;-76
2021/11/11 09:37:48;;;;;;;10.93;8.05;;;10.00;75.90;;;;;;5053768;28;20027;-77
2021/11/11 09:40:17;;;;;;;10.25;7.68;;;10.00;75.80;;;;;;5036695;28;20112;-78
2021/11/11 09:42:44;;;;;;;9.48;7.40;;;10.00;75.80;;;;;;5053188;28;20036;-77
2021/11/11 09:45:12;;;;;;;9.93;7.63;;;10.00;75.80;;;;;;5053942;28;20021;-78
2021/11/11 09:47:39;;;;;;;10.38;7.65;;;10.00;75.80;;;;;;5054745;28;20481;-78
2021/11/11 09:50:07;;;;;;;10.57;7.10;;;10.10;75.80;;;;;;5053313;28;20420;-78
2021/11/11 09:52:34;;;;;;;8.70;6.93;;;10.10;75.80;;;;;;5052926;28;20094;-77
2021/11/11 10:00:31;;;;;;;8.03;7.00;;;10.10;75.80;;;;;;5053404;28;20470;-78
2021/11/11 10:02:57;;;;;;;10.32;7.28;;;10.10;75.70;;;;;;5053157;28;20432;-77
2021/11/11 10:05:23;;;;;;;9.68;7.40;;;10.20;75.80;;;;;;5052798;28;20033;-76
2021/11/11 10:07:49;;;;;;;9.95;7.43;;;10.20;75.80;;;;;;5053046;28;20056;-78
2021/11/11 10:10:37;;;;;;;10.43;7.30;;;10.20;75.80;;;;;;5054180;28;20120;-76
2021/11/11 10:13:15;;;;;;;10.25;7.53;;;10.20;75.90;;;;;;5069323;28;20037;-75
2021/11/11 10:16:04;;;;;;;9.40;7.70;;;10.20;75.80;;;;;;5069349;28;20032;-79
2021/11/11 10:18:46;;;;;;;10.13;7.07;;;10.20;75.90;;;;;;5052912;28;20033;-76
2021/11/11 10:24:23;;;;;;;9.95;6.97;;;10.30;76.00;;;;;;5052701;28;20029;-78
2021/11/11 10:27:38;;;;;;;10.48;7.10;;;10.30;75.80;;;;;;5052440;28;20033;-77
2021/11/11 10:30:06;;;;;;;9.85;7.68;;;10.30;76.00;;;;;;5069832;28;20133;-79
2021/11/11 10:32:46;;;;;;;9.50;7.20;;;10.40;75.80;;;;;;5069015;28;20404;-78
2021/11/11 10:35:17;;;;;;;9.88;7.55;;;10.40;76.00;;;;;;5053189;28;20060;-77
2021/11/11 10:37:58;;;;;;;9.10;7.13;;;10.40;75.90;;;;;;5054484;28;20035;-79
2021/11/11 10:40:27;;;;;;;9.77;7.80;;;10.50;76.00;;;;;;5069064;28;20457;-77
2021/11/11 10:42:55;;;;;;;11.25;7.68;;;10.40;75.80;;;;;;5053522;28;20028;-78
2021/11/11 10:45:29;;;;;;;10.50;7.70;;;10.50;75.80;;;;;;5052996;28;20060;-78
2021/11/11 10:48:04;;;;;;;10.00;7.13;;;10.50;75.90;;;;;;5068315;28;20029;-79
2021/11/11 10:50:34;;;;;;;10.15;7.07;;;10.50;75.80;;;;;;5053805;28;20029;-78
2021/11/11 10:53:12;;;;;;;9.68;7.15;;;10.50;75.80;;;;;;5052418;28;20039;-78
2021/11/11 10:55:39;;;;;;;10.90;8.05;;;10.60;75.90;;;;;;5053528;28;20033;-79
2021/11/11 10:58:07;;;;;;;11.13;8.35;;;10.60;75.80;;;;;;5052923;28;20029;-78
2021/11/11 11:00:56;;;;;;;11.10;7.82;;;10.60;75.80;;;;;;5068708;28;20091;-77
2021/11/11 11:03:37;;;;;;;10.27;7.28;;;10.70;75.90;;;;;;5053157;28;20041;-75
2021/11/11 11:06:08;;;;;;;10.15;7.80;;;10.70;75.80;;;;;;5053587;28;20115;-77
2021/11/11 11:08:40;;;;;;;10.07;7.93;;;10.70;75.80;;;;;;5035757;28;20029;-78
2021/11/11 11:11:10;;;;;;;11.50;8.25;;;10.70;75.70;;;;;;5052286;28;20032;-76
2021/11/11 11:13:40;;;;;;;11.75;8.55;;;10.80;75.80;;;;;;5051822;28;20033;-76
2021/11/11 11:16:26;;;;;;;9.95;7.80;;;10.80;75.70;;;;;;5068555;28;20033;-77
2021/11/11 11:18:58;;;;;;;9.63;7.15;;;10.80;75.70;;;;;;5051510;28;20045;-75
2021/11/11 11:21:26;;;;;;;11.35;7.95;;;10.90;75.80;;;;;;5068389;28;20020;-76
2021/11/11 11:23:54;;;;;;;12.45;8.35;;;10.90;75.70;;;;;;5051933;28;20022;-78
2021/11/11 11:26:22;;;;;;;10.15;7.72;;;10.90;75.70;;;;;;5052127;28;20072;-77
2021/11/11 11:32:13;;;;;;;9.85;7.75;;;11.00;75.70;;;;;;5051799;28;20029;-78
2021/11/11 11:34:45;;;;;;;9.93;7.63;;;11.00;75.80;;;;;;5036605;28;20131;-77
2021/11/11 11:37:24;;;;;;;9.60;7.72;;;11.00;75.50;;;;;;5053159;28;20029;-78
2021/11/11 11:39:56;;;;;;;9.27;6.90;;;11.00;75.60;;;;;;5068916;28;20091;-75
2021/11/11 11:42:33;;;;;;;11.20;7.93;;;11.10;75.60;;;;;;5051096;28;20079;-76
2021/11/11 11:45:07;;;;;;;11.02;7.78;;;11.10;75.60;;;;;;5052753;28;20036;-76
2021/11/11 11:47:48;;;;;;;12.13;8.03;;;11.10;75.50;;;;;;5052358;28;20037;-77
2021/11/11 11:50:24;;;;;;;10.05;7.88;;;11.20;75.50;;;;;;5053159;28;20476;-74
2021/11/11 11:53:00;;;;;;;10.85;8.00;;;11.20;75.50;;;;;;5052556;28;20090;-75
2021/11/11 11:55:46;;;;;;;10.77;8.68;;;11.20;75.40;;;;;;5067951;28;20039;-77
2021/11/11 11:58:23;;;;;;;10.75;8.15;;;11.20;75.40;;;;;;5051818;28;20033;-76
2021/11/11 12:06:40;;;;;;;11.43;8.50;;;11.30;75.30;;;;;;5056131;28;20037;-80
2021/11/11 12:09:21;;;;;;;10.45;8.00;;;11.30;75.30;;;;;;5056178;28;20480;-80
2021/11/11 12:39:55;;;;;;;11.50;8.52;;;11.50;75.40;;;;;;5054815;28;20036;-78
2021/11/11 12:42:31;;;;;;;11.75;8.27;;;11.60;75.50;;;;;;5055805;28;20045;-78
2021/11/11 12:45:04;;;;;;;11.30;8.45;;;11.60;75.50;;;;;;5055715;28;20029;-78
2021/11/11 12:47:37;;;;;;;12.15;8.90;;;11.60;75.40;;;;;;5056055;28;20396;-79
2021/11/11 12:50:25;;;;;;;11.27;8.55;;;11.60;75.40;;;;;;5054601;28;20024;-78
2021/11/11 12:53:10;;;;;;;12.88;9.35;;;11.70;75.60;;;;;;5055602;28;20021;-78
2021/11/11 12:55:55;;;;;;;12.30;9.00;;;11.70;75.50;;;;;;5055196;28;20037;-79
2021/11/11 12:58:31;;;;;;;13.37;9.93;;;11.70;75.50;;;;;;5055196;28;20025;-78
2021/11/11 13:01:00;;;;;;;12.82;9.15;;;11.80;75.60;;;;;;5054405;28;20116;-78
2021/11/11 13:03:55;;;;;;;13.15;9.95;;;11.70;75.40;;;;;;5055284;28;20442;-78
2021/11/11 13:06:45;;;;;;;12.20;9.37;;;11.70;75.60;;;;;;5054075;28;20098;-78
2021/11/11 13:09:25;;;;;;;12.63;9.10;;;11.80;75.50;;;;;;5054929;28;20063;-79
2021/11/11 13:11:55;;;;;;;11.82;8.68;;;11.80;75.40;;;;;;5069691;28;20115;-78
2021/11/11 13:14:23;;;;;;;12.30;9.15;;;11.80;75.50;;;;;;5055133;28;20029;-78
2021/11/11 13:16:55;;;;;;;13.55;10.23;;;11.80;75.40;;;;;;5054827;28;20373;-78
2021/11/11 13:19:34;;;;;;;14.23;10.02;;;11.90;75.50;;;;;;5053725;28;20040;-78
2021/11/11 13:22:07;;;;;;;13.70;10.55;;;11.90;75.60;;;;;;5054419;28;20060;-78
2021/11/11 13:24:51;;;;;;;14.10;10.70;;;11.90;75.50;;;;;;5054408;28;20442;-79
2021/11/11 15:17:26;;;;;;;11.55;8.80;;;12.50;74.50;;;;;;5053195;28;20068;-78
2021/11/11 15:20:40;;;;;;;10.85;8.23;;;12.50;74.50;;;;;;5052261;28;20071;-78
2021/11/11 15:57:31;;;;;;;11.65;8.38;;;12.60;74.50;;;;;;5055642;28;20029;-79
2021/11/11 16:00:09;;;;;;;11.25;8.43;;;12.60;74.40;;;;;;5058381;28;20041;-79
2021/11/11 16:22:11;;;;;;;10.70;8.23;;;12.70;74.50;;;;;;5055108;28;20045;-79
2021/11/11 16:27:22;;;;;;;10.93;8.40;;;12.60;74.60;;;;;;5055240;28;20037;-79
2021/11/11 16:29:57;;;;;;;10.65;8.48;;;12.60;74.40;;;;;;5071150;28;20084;-77
2021/11/11 16:32:23;;;;;;;12.57;8.70;;;12.60;74.40;;;;;;5039424;28;20029;-79
2021/11/11 16:34:49;;;;;;;11.32;9.10;;;12.70;74.50;;;;;;5054394;28;20063;-78
2021/11/11 16:37:14;;;;;;;11.35;8.50;;;12.60;74.40;;;;;;5037729;28;20028;-78
2021/11/11 16:39:41;;;;;;;11.20;8.77;;;12.70;74.50;;;;;;5054593;28;20067;-78
2021/11/11 16:42:07;;;;;;;12.05;9.25;;;12.60;74.70;;;;;;5055090;28;20041;-79
2021/11/11 16:44:33;;;;;;;11.35;9.13;;;12.60;74.40;;;;;;5054912;28;20434;-76
2021/11/11 16:47:02;;;;;;;11.63;8.85;;;12.70;74.50;;;;;;5054491;28;20063;-77
2021/11/11 16:49:30;;;;;;;11.85;9.18;;;12.60;74.40;;;;;;5055827;28;20056;-78
2021/11/11 16:51:57;;;;;;;11.13;8.80;;;12.70;74.40;;;;;;5054466;28;20048;-79
2021/11/11 16:54:22;;;;;;;11.32;8.50;;;12.60;74.40;;;;;;5054043;28;20040;-78
2021/11/11 16:56:48;;;;;;;12.00;9.32;;;12.60;75.00;;;;;;5055017;28;20162;-77